Aviation Digital Data Service (ADDS)

Output produced by METARs form (0701 UTC 04 July 2015)
found at http://aviationweather.gov/adds/metars/
 
KCAK 040524Z 0406/0506 01004KT P6SM SCT050 BKN200 
     TEMPO 0410/0413 4SM BR 
     FM041400 33006KT P6SM FEW045 SCT200 
     FM050100 VRB02KT P6SM FEW250